createdAt,value
2018-04-17T00:01:31.144Z,93.20
2018-04-17T00:03:58.727Z,93.00
2018-04-17T00:06:27.023Z,93.10
2018-04-17T00:08:54.663Z,93.10
2018-04-17T00:11:22.259Z,93.00
2018-04-17T00:13:49.813Z,93.10
2018-04-17T00:16:17.334Z,92.90
2018-04-17T00:18:44.883Z,93.00
2018-04-17T00:21:12.408Z,93.10
2018-04-17T00:23:39.954Z,93.20
2018-04-17T00:26:07.484Z,93.20
2018-04-17T00:28:35.037Z,93.30
2018-04-17T00:31:02.583Z,93.30
2018-04-17T00:33:31.108Z,93.40
2018-04-17T00:35:58.664Z,93.50
2018-04-17T00:38:26.236Z,93.70
2018-04-17T00:40:53.770Z,93.90
2018-04-17T00:43:21.435Z,93.90
2018-04-17T00:45:48.964Z,93.90
2018-04-17T00:48:16.531Z,93.90
2018-04-17T00:50:44.055Z,94.10
2018-04-17T00:53:23.467Z,94.20
2018-04-17T00:55:50.999Z,94.20
2018-04-17T00:58:18.573Z,94.30
2018-04-17T01:00:46.103Z,94.40
2018-04-17T01:03:13.664Z,94.30
2018-04-17T01:05:41.207Z,94.40
2018-04-17T01:08:08.755Z,94.50
2018-04-17T01:10:36.278Z,94.30
2018-04-17T01:13:03.847Z,94.40
2018-04-17T01:15:31.380Z,94.50
2018-04-17T01:17:58.903Z,95.10
2018-04-17T01:20:26.513Z,95.10
2018-04-17T01:22:54.837Z,95.00
2018-04-17T01:25:22.423Z,95.20
2018-04-17T01:27:49.947Z,95.30
2018-04-17T01:30:17.587Z,95.30
2018-04-17T01:32:45.103Z,95.40
2018-04-17T01:35:12.668Z,95.50
2018-04-17T01:37:40.209Z,95.70
2018-04-17T01:40:07.753Z,95.70
2018-04-17T01:42:35.276Z,95.90
2018-04-17T01:45:02.836Z,96.00
2018-04-17T01:47:30.585Z,96.00
2018-04-17T01:49:58.143Z,96.20
2018-04-17T01:52:25.680Z,96.10
2018-04-17T01:54:53.953Z,95.90
2018-04-17T01:57:21.499Z,96.00
2018-04-17T01:59:49.139Z,96.30
2018-04-17T02:02:16.664Z,96.40
2018-04-17T02:04:44.219Z,96.60
2018-04-17T02:07:11.744Z,96.70
2018-04-17T02:09:39.304Z,96.70
2018-04-17T02:12:06.865Z,96.80
2018-04-17T02:14:34.419Z,96.80
2018-04-17T02:17:01.948Z,97.00
2018-04-17T02:19:29.507Z,97.00
2018-04-17T02:21:57.036Z,97.00
2018-04-17T02:24:24.646Z,97.00
2018-04-17T02:26:52.198Z,97.00
2018-04-17T02:29:19.776Z,97.10
2018-04-17T02:31:47.356Z,97.10
2018-04-17T02:34:14.934Z,97.00
2018-04-17T02:36:42.493Z,97.00
2018-04-17T02:39:10.021Z,97.00
2018-04-17T02:41:37.610Z,97.00
2018-04-17T02:44:05.136Z,96.90
2018-04-17T02:46:32.816Z,96.90
2018-04-17T02:49:00.441Z,97.00
2018-04-17T02:51:28.055Z,97.10
2018-04-17T02:53:55.634Z,97.00
2018-04-17T02:56:23.196Z,97.20
2018-04-17T02:58:50.811Z,97.20
2018-04-17T03:01:18.373Z,97.20
2018-04-17T03:03:45.905Z,97.30
2018-04-17T03:06:13.467Z,97.40
2018-04-17T03:08:40.999Z,97.40
2018-04-17T03:11:08.560Z,97.50
2018-04-17T03:13:37.608Z,97.50
2018-04-17T03:16:05.171Z,97.50
2018-04-17T03:18:32.725Z,97.70
2018-04-17T03:21:00.308Z,97.80
2018-04-17T03:23:27.856Z,97.80
2018-04-17T03:25:55.452Z,97.70
2018-04-17T03:28:23.793Z,98.00
2018-04-17T03:30:51.361Z,98.00
2018-04-17T03:33:20.401Z,98.10
2018-04-17T03:35:48.065Z,98.10
2018-04-17T03:38:15.672Z,98.20
2018-04-17T03:40:43.232Z,98.30
2018-04-17T03:43:12.415Z,98.50
2018-04-17T03:45:39.984Z,98.40
2018-04-17T03:48:07.512Z,98.40
2018-04-17T03:50:35.039Z,98.50
2018-04-17T03:53:02.628Z,98.50
2018-04-17T03:55:30.151Z,98.50
2018-04-17T03:57:57.711Z,98.60
2018-04-17T04:00:25.294Z,98.60
2018-04-17T04:02:52.912Z,98.80
2018-04-17T04:05:20.443Z,98.80
2018-04-17T04:07:48.009Z,98.70
2018-04-17T04:10:15.689Z,98.60
2018-04-17T04:12:44.017Z,98.60
2018-04-17T04:15:11.547Z,98.60
2018-04-17T04:17:50.976Z,98.60
2018-04-17T04:20:30.351Z,98.70
2018-04-17T04:23:10.007Z,98.70
2018-04-17T04:28:44.249Z,98.60
2018-04-17T04:31:11.860Z,98.70
2018-04-17T04:33:39.384Z,98.70
2018-04-17T04:36:06.948Z,98.60
2018-04-17T04:38:34.501Z,98.50
2018-04-17T04:41:02.052Z,98.30
2018-04-17T04:43:29.899Z,98.60
2018-04-17T04:45:57.441Z,98.30
2018-04-17T04:48:25.054Z,98.40
2018-04-17T04:50:52.547Z,98.00
2018-04-17T04:53:21.615Z,98.00
2018-04-17T04:55:49.221Z,97.90
2018-04-17T04:58:16.816Z,97.80
2018-04-17T05:00:44.566Z,97.70
2018-04-17T05:03:12.128Z,97.80
2018-04-17T05:05:40.447Z,97.60
2018-04-17T05:08:07.996Z,97.60
2018-04-17T05:10:35.557Z,97.60
2018-04-17T05:13:03.115Z,97.50
2018-04-17T05:15:30.652Z,97.40
2018-04-17T05:17:58.224Z,97.10
2018-04-17T05:20:26.530Z,96.80
2018-04-17T05:22:55.097Z,96.80
2018-04-17T05:25:22.639Z,96.10
2018-04-17T05:27:50.223Z,95.90
2018-04-17T05:30:19.266Z,95.70
2018-04-17T05:32:46.860Z,95.70
2018-04-17T05:35:15.164Z,95.30
2018-04-17T05:37:42.738Z,95.30
2018-04-17T05:40:10.280Z,95.20
2018-04-17T05:42:37.949Z,95.10
2018-04-17T05:45:05.477Z,94.90
2018-04-17T05:47:33.047Z,94.70
2018-04-17T05:50:01.348Z,94.50
2018-04-17T05:52:28.904Z,94.40
2018-04-17T05:54:56.468Z,94.50
2018-04-17T05:57:24.098Z,94.50
2018-04-17T05:59:51.667Z,94.60
2018-04-17T06:02:19.231Z,94.70
2018-04-17T06:04:47.584Z,94.40
2018-04-17T06:07:15.231Z,94.40
2018-04-17T06:09:42.797Z,94.40
2018-04-17T06:12:11.131Z,94.00
2018-04-17T06:14:38.724Z,94.00
2018-04-17T06:17:06.253Z,94.00
2018-04-17T06:19:34.597Z,93.70
2018-04-17T06:22:02.956Z,93.70
2018-04-17T06:24:32.028Z,93.70
2018-04-17T06:26:59.583Z,93.70
2018-04-17T06:29:27.155Z,93.60
2018-04-17T06:31:54.683Z,93.30
2018-04-17T06:34:23.018Z,93.30
2018-04-17T06:36:50.642Z,93.20
2018-04-17T06:39:18.244Z,93.00
2018-04-17T06:41:45.838Z,93.00
2018-04-17T06:44:13.384Z,92.90
2018-04-17T06:46:40.914Z,92.40
2018-04-17T06:49:08.513Z,92.10
2018-04-17T06:51:36.814Z,92.40
2018-04-17T06:54:04.375Z,92.30
2018-04-17T06:56:32.002Z,91.40
2018-04-17T06:58:59.564Z,91.70
2018-04-17T07:01:27.147Z,91.90
2018-04-17T07:03:54.756Z,92.10
2018-04-17T07:06:22.292Z,92.30
2018-04-17T07:08:49.914Z,92.10
2018-04-17T07:11:17.469Z,92.10
2018-04-17T07:13:45.039Z,92.00
2018-04-17T07:16:12.590Z,91.70
2018-04-17T07:18:40.159Z,91.00
2018-04-17T07:21:08.479Z,90.90
2018-04-17T07:23:36.056Z,90.90
2018-04-17T07:26:03.608Z,91.00
2018-04-17T07:28:31.899Z,90.70
2018-04-17T07:30:59.464Z,90.70
2018-04-17T07:33:27.139Z,89.80
2018-04-17T07:35:54.690Z,90.00
2018-04-17T07:38:22.217Z,87.90
2018-04-17T07:40:49.772Z,87.90
2018-04-17T07:43:17.308Z,88.10
2018-04-17T07:45:44.881Z,87.70
2018-04-17T07:48:22.018Z,83.20
2018-04-17T07:50:49.583Z,85.20
2018-04-17T07:53:17.123Z,82.50
2018-04-17T07:55:44.702Z,81.20
2018-04-17T07:58:13.103Z,79.90
2018-04-17T08:00:40.655Z,79.90
2018-04-17T08:03:08.316Z,79.70
2018-04-17T08:05:35.887Z,79.50
2018-04-17T08:08:03.504Z,79.50
2018-04-17T08:10:31.068Z,79.30
2018-04-17T08:12:58.596Z,78.60
2018-04-17T08:15:26.155Z,77.60
2018-04-17T08:17:55.190Z,75.10
2018-04-17T08:20:22.761Z,75.00
2018-04-17T08:22:50.357Z,74.20
2018-04-17T08:25:19.097Z,73.60
2018-04-17T08:27:46.748Z,73.50
2018-04-17T08:30:14.489Z,73.50
2018-04-17T08:32:42.156Z,71.80
2018-04-17T08:35:09.775Z,71.70
2018-04-17T08:37:37.322Z,70.20
2018-04-17T08:40:04.958Z,68.60
2018-04-17T08:42:32.491Z,69.60
2018-04-17T08:45:00.047Z,68.30
2018-04-17T08:47:27.589Z,66.70
2018-04-17T08:49:55.240Z,67.20
2018-04-17T08:52:22.858Z,66.00
2018-04-17T08:54:50.435Z,65.20
2018-04-17T08:57:17.983Z,64.60
2018-04-17T08:59:45.578Z,61.90
2018-04-17T09:02:13.126Z,62.70
2018-04-17T09:04:40.660Z,60.10
2018-04-17T09:07:08.971Z,58.80
2018-04-17T09:09:36.526Z,58.80
2018-04-17T09:12:06.288Z,58.40
2018-04-17T09:14:33.826Z,58.50
2018-04-17T09:17:02.359Z,58.20
2018-04-17T09:19:29.899Z,57.20
2018-04-17T09:21:57.460Z,58.10
2018-04-17T09:24:25.785Z,56.80
2018-04-17T09:26:53.335Z,56.70
2018-04-17T09:29:20.912Z,57.40
2018-04-17T09:31:48.435Z,57.20
2018-04-17T09:34:17.453Z,57.30
2018-04-17T09:36:45.019Z,57.30
2018-04-17T09:39:12.586Z,56.30
2018-04-17T09:41:40.135Z,56.40
2018-04-17T09:44:07.651Z,55.00
2018-04-17T09:46:35.203Z,55.50
2018-04-17T09:49:02.871Z,55.50
2018-04-17T09:51:30.455Z,53.80
2018-04-17T09:53:58.744Z,51.60
2018-04-17T09:56:26.295Z,51.60
2018-04-17T09:58:53.811Z,52.00
2018-04-17T10:01:22.175Z,53.00
2018-04-17T10:03:49.693Z,53.10
2018-04-17T10:06:18.059Z,53.10
2018-04-17T10:08:45.642Z,52.90
2018-04-17T10:11:13.391Z,53.50
2018-04-17T10:13:40.910Z,54.00
2018-04-17T10:16:09.323Z,54.00
2018-04-17T10:18:36.853Z,53.90
2018-04-17T10:21:04.367Z,54.40
2018-04-17T10:23:31.918Z,54.50
2018-04-17T10:26:00.218Z,54.30
2018-04-17T10:28:27.759Z,54.30
2018-04-17T10:30:56.171Z,54.60
2018-04-17T10:33:24.515Z,55.10
2018-04-17T10:35:52.035Z,55.00
2018-04-17T10:38:19.591Z,54.70
2018-04-17T10:40:47.122Z,54.30
2018-04-17T10:43:14.707Z,55.00
2018-04-17T10:45:42.258Z,55.10
2018-04-17T10:48:10.586Z,55.30
2018-04-17T10:50:38.102Z,55.40
2018-04-17T10:53:05.661Z,54.30
2018-04-17T10:55:33.179Z,54.50
2018-04-17T10:58:00.733Z,55.10
2018-04-17T11:00:28.258Z,54.90
2018-04-17T11:02:55.840Z,54.90
2018-04-17T11:05:23.359Z,54.90
2018-04-17T11:07:50.923Z,54.00
2018-04-17T11:10:18.471Z,54.30
2018-04-17T11:12:46.031Z,53.70
2018-04-17T11:15:13.600Z,52.80
2018-04-17T11:17:41.230Z,52.70
2018-04-17T11:20:08.855Z,51.80
2018-04-17T11:22:36.412Z,51.50
2018-04-17T11:25:04.471Z,52.30
2018-04-17T11:27:32.090Z,51.30
2018-04-17T11:29:59.610Z,52.30
2018-04-17T11:32:27.278Z,53.40
2018-04-17T11:34:54.990Z,52.80
2018-04-17T11:37:22.579Z,52.80
2018-04-17T11:39:50.183Z,50.30
2018-04-17T11:42:17.716Z,51.80
2018-04-17T11:44:46.034Z,51.90
2018-04-17T11:47:13.574Z,51.50
2018-04-17T11:49:41.124Z,52.70
2018-04-17T11:52:08.643Z,52.20
2018-04-17T11:54:36.218Z,52.70
2018-04-17T11:57:03.737Z,52.50
2018-04-17T11:59:31.319Z,53.80
2018-04-17T12:01:58.844Z,52.20
2018-04-17T12:04:26.385Z,51.70
2018-04-17T12:06:54.038Z,52.50
2018-04-17T12:09:21.580Z,52.10
2018-04-17T12:11:49.099Z,52.10
2018-04-17T12:14:16.696Z,51.90
2018-04-17T12:16:44.215Z,51.80
2018-04-17T12:19:11.763Z,51.90
2018-04-17T12:21:39.279Z,52.10
2018-04-17T12:24:06.831Z,50.60
2018-04-17T12:26:34.357Z,50.30
2018-04-17T12:29:01.929Z,50.60
2018-04-17T12:31:29.472Z,50.50
2018-04-17T12:33:57.493Z,51.30
2018-04-17T12:36:25.035Z,50.80
2018-04-17T12:38:52.631Z,49.60
2018-04-17T12:41:21.143Z,49.90
2018-04-17T12:43:48.732Z,50.70
2018-04-17T12:46:16.246Z,51.00
2018-04-17T12:48:43.766Z,50.50
2018-04-17T12:51:12.079Z,52.80
2018-04-17T12:53:39.619Z,52.40
2018-04-17T12:56:07.304Z,53.50
2018-04-17T12:58:35.587Z,54.50
2018-04-17T13:01:03.894Z,54.60
2018-04-17T13:03:31.411Z,54.50
2018-04-17T13:05:58.959Z,52.90
2018-04-17T13:08:26.517Z,52.50
2018-04-17T13:10:54.064Z,52.60
2018-04-17T13:13:21.581Z,50.60
2018-04-17T13:15:49.912Z,50.50
2018-04-17T13:18:17.465Z,50.60
2018-04-17T13:20:45.313Z,50.30
2018-04-17T13:23:12.930Z,50.90
2018-04-17T13:25:40.476Z,51.00
2018-04-17T13:28:08.001Z,50.60
2018-04-17T13:30:35.607Z,50.70
2018-04-17T13:33:03.127Z,50.90
2018-04-17T13:35:30.670Z,50.80
2018-04-17T13:37:58.971Z,51.80
2018-04-17T13:40:26.528Z,52.30
2018-04-17T13:42:54.238Z,52.40
2018-04-17T13:45:21.849Z,52.10
2018-04-17T13:47:49.400Z,52.50
2018-04-17T13:50:16.932Z,51.70
2018-04-17T13:52:44.455Z,51.90
2018-04-17T13:55:11.998Z,51.90
2018-04-17T13:57:39.575Z,51.70
2018-04-17T14:00:07.138Z,52.50
2018-04-17T14:02:34.766Z,52.00
2018-04-17T14:05:02.307Z,50.80
2018-04-17T14:07:29.880Z,50.60
2018-04-17T14:09:57.399Z,50.90
2018-04-17T14:12:24.938Z,50.60
2018-04-17T14:14:52.467Z,51.00
2018-04-17T14:17:20.085Z,50.20
2018-04-17T14:19:47.574Z,49.40
2018-04-17T14:22:15.140Z,49.00
2018-04-17T14:24:42.687Z,49.40
2018-04-17T14:27:10.259Z,48.10
2018-04-17T14:29:37.806Z,47.30
2018-04-17T14:32:07.036Z,45.60
2018-04-17T14:34:34.554Z,45.60
2018-04-17T14:37:02.147Z,45.20
2018-04-17T14:39:29.687Z,45.50
2018-04-17T14:41:57.244Z,46.40
2018-04-17T14:44:24.974Z,46.60
2018-04-17T14:46:52.599Z,47.50
2018-04-17T14:49:20.204Z,47.50
2018-04-17T14:51:48.724Z,46.90
2018-04-17T14:54:16.470Z,46.90
2018-04-17T14:56:44.027Z,47.10
2018-04-17T14:59:11.545Z,46.00
2018-04-17T15:01:39.097Z,45.90
2018-04-17T15:04:07.563Z,46.10
2018-04-17T15:06:35.131Z,45.60
2018-04-17T15:09:03.459Z,45.90
2018-04-17T15:11:31.934Z,45.70
2018-04-17T15:13:59.558Z,46.30
2018-04-17T15:16:27.215Z,46.80
2018-04-17T15:18:55.100Z,47.60
2018-04-17T15:21:22.612Z,46.00
2018-04-17T15:23:50.159Z,45.30
2018-04-17T15:26:17.680Z,45.30
2018-04-17T15:28:46.155Z,45.20
2018-04-17T15:31:13.698Z,45.20
2018-04-17T15:33:41.276Z,44.20
2018-04-17T15:36:08.866Z,45.90
2018-04-17T15:38:37.298Z,47.70
2018-04-17T15:41:04.847Z,47.50
2018-04-17T15:43:32.479Z,47.50
2018-04-17T15:45:59.995Z,47.50
2018-04-17T15:48:27.602Z,47.20
2018-04-17T15:50:55.159Z,47.20
2018-04-17T15:53:23.561Z,46.20
2018-04-17T15:55:51.088Z,46.20
2018-04-17T15:58:18.680Z,47.30
2018-04-17T16:00:46.206Z,45.80
2018-04-17T16:03:13.752Z,42.20
2018-04-17T16:05:41.401Z,40.40
2018-04-17T16:08:08.948Z,38.50
2018-04-17T16:10:36.497Z,35.70
2018-04-17T16:13:04.055Z,34.50
2018-04-17T16:15:31.591Z,34.20
2018-04-17T16:17:59.153Z,34.20
2018-04-17T16:20:26.671Z,33.80
2018-04-17T16:22:54.216Z,32.80
2018-04-17T16:25:21.775Z,32.20
2018-04-17T16:27:49.334Z,32.00
2018-04-17T16:30:16.947Z,31.60
2018-04-17T16:32:44.551Z,31.10
2018-04-17T16:35:12.868Z,30.30
2018-04-17T16:37:40.422Z,30.30
2018-04-17T16:40:07.991Z,29.60
2018-04-17T16:42:36.299Z,30.60
2018-04-17T16:45:03.849Z,30.00
2018-04-17T16:47:31.470Z,30.20
2018-04-17T16:49:59.055Z,30.40
2018-04-17T16:52:26.576Z,31.20
2018-04-17T16:54:54.577Z,31.60
2018-04-17T16:57:22.394Z,31.80
2018-04-17T16:59:49.955Z,31.30
2018-04-17T17:02:17.478Z,31.90
2018-04-17T17:04:45.028Z,31.20
2018-04-17T17:07:12.551Z,30.50
2018-04-17T17:09:40.116Z,30.10
2018-04-17T17:12:07.654Z,29.70
2018-04-17T17:14:35.209Z,29.90
2018-04-17T17:17:02.746Z,30.50
2018-04-17T17:19:30.287Z,31.50
2018-04-17T17:21:57.843Z,32.50
2018-04-17T17:24:25.507Z,34.20
2018-04-17T17:26:54.591Z,36.70
2018-04-17T17:29:22.130Z,36.70
2018-04-17T17:31:49.655Z,37.20
2018-04-17T17:34:17.211Z,37.20
2018-04-17T17:36:44.738Z,37.60
2018-04-17T17:39:12.334Z,37.90
2018-04-17T17:41:40.609Z,39.40
2018-04-17T17:44:08.948Z,41.00
2018-04-17T17:46:36.463Z,40.90
2018-04-17T17:49:03.979Z,42.40
2018-04-17T17:51:31.561Z,44.10
2018-04-17T17:53:59.159Z,46.70
2018-04-17T17:56:26.677Z,48.70
2018-04-17T17:58:54.992Z,51.70
2018-04-17T18:01:22.517Z,51.70
2018-04-17T18:03:50.114Z,52.70
2018-04-17T18:06:17.711Z,53.70
2018-04-17T18:08:45.230Z,54.40
2018-04-17T18:11:13.752Z,56.10
2018-04-17T18:13:41.263Z,56.10
2018-04-17T18:16:08.812Z,57.10
2018-04-17T18:18:36.335Z,57.50
2018-04-17T18:21:03.916Z,58.20
2018-04-17T18:23:31.443Z,58.50
2018-04-17T18:25:59.004Z,59.10
2018-04-17T18:28:26.523Z,59.40
2018-04-17T18:30:54.089Z,59.40
2018-04-17T18:33:21.657Z,59.80
2018-04-17T18:35:50.041Z,60.90
2018-04-17T18:38:18.339Z,61.30
2018-04-17T18:40:45.907Z,60.70
2018-04-17T18:43:13.426Z,60.60
2018-04-17T18:45:40.986Z,61.50
2018-04-17T18:48:08.507Z,61.50
2018-04-17T18:50:36.062Z,62.00
2018-04-17T18:53:03.627Z,62.30
2018-04-17T18:55:31.282Z,62.70
2018-04-17T18:57:58.806Z,63.00
2018-04-17T19:00:26.372Z,63.40
2018-04-17T19:02:54.877Z,64.10
2018-04-17T19:05:23.203Z,64.80
2018-04-17T19:07:50.776Z,64.80
2018-04-17T19:10:18.487Z,64.70
2018-04-17T19:12:46.340Z,65.40
2018-04-17T19:15:14.003Z,65.80
2018-04-17T19:17:41.584Z,66.00
2018-04-17T19:20:09.904Z,66.50
2018-04-17T19:22:37.427Z,66.50
2018-04-17T19:25:04.979Z,66.60
2018-04-17T19:27:32.547Z,66.70
2018-04-17T19:30:00.076Z,67.10
2018-04-17T19:32:27.633Z,66.90
2018-04-17T19:34:55.262Z,67.10
2018-04-17T19:37:22.812Z,67.40
2018-04-17T19:39:50.673Z,67.70
2018-04-17T19:42:18.451Z,67.70
2018-04-17T19:44:46.407Z,68.10
2018-04-17T19:47:14.138Z,67.90
2018-04-17T19:49:41.962Z,68.30
2018-04-17T19:52:09.819Z,68.30
2018-04-17T19:54:37.350Z,68.60
2018-04-17T19:57:05.006Z,69.10
2018-04-17T19:59:32.539Z,69.30
2018-04-17T20:02:00.194Z,69.70
2018-04-17T20:04:27.741Z,69.80
2018-04-17T20:06:55.304Z,69.50
2018-04-17T20:09:24.396Z,69.80
2018-04-17T20:11:52.901Z,69.70
2018-04-17T20:14:20.564Z,70.20
2018-04-17T20:16:48.161Z,70.40
2018-04-17T20:19:15.702Z,70.90
2018-04-17T20:21:43.246Z,71.70
2018-04-17T20:24:11.556Z,71.40
2018-04-17T20:26:39.121Z,71.40
2018-04-17T20:29:06.665Z,71.60
2018-04-17T20:31:34.287Z,71.70
2018-04-17T20:34:01.860Z,71.80
2018-04-17T20:36:29.465Z,72.20
2018-04-17T20:38:57.047Z,72.70
2018-04-17T20:41:24.597Z,72.30
2018-04-17T20:43:52.174Z,72.50
2018-04-17T20:46:20.482Z,72.20
2018-04-17T20:48:48.099Z,72.20
2018-04-17T20:51:16.390Z,73.10
2018-04-17T20:53:43.964Z,73.10
2018-04-17T20:56:11.499Z,73.70
2018-04-17T20:58:39.086Z,74.10
2018-04-17T21:01:07.433Z,74.60
2018-04-17T21:03:34.967Z,74.50
2018-04-17T21:06:02.489Z,75.00
2018-04-17T21:08:30.107Z,75.30
2018-04-17T21:10:57.642Z,75.20
2018-04-17T21:13:25.194Z,75.50
2018-04-17T21:15:52.716Z,75.90
2018-04-17T21:18:21.028Z,76.00
2018-04-17T21:20:48.552Z,76.00
2018-04-17T21:23:16.549Z,76.50
2018-04-17T21:25:44.151Z,77.00
2018-04-17T21:28:11.703Z,77.80
2018-04-17T21:30:39.271Z,78.00
2018-04-17T21:33:06.827Z,78.10
2018-04-17T21:35:34.458Z,78.20
2018-04-17T21:38:02.028Z,78.10
2018-04-17T21:40:29.558Z,78.10
2018-04-17T21:42:57.102Z,78.00
2018-04-17T21:45:24.652Z,78.30
2018-04-17T21:47:52.384Z,78.50
2018-04-17T21:50:19.916Z,78.90
2018-04-17T21:52:47.454Z,78.90
2018-04-17T21:55:17.171Z,79.10
2018-04-17T21:57:45.075Z,79.20
2018-04-17T22:00:12.619Z,79.20
2018-04-17T22:02:40.948Z,79.60
2018-04-17T22:05:08.583Z,79.60
2018-04-17T22:07:36.142Z,79.40
2018-04-17T22:10:05.238Z,79.30
2018-04-17T22:12:33.578Z,79.50
2018-04-17T22:15:01.099Z,79.50
2018-04-17T22:19:59.510Z,79.40
2018-04-17T22:22:27.117Z,80.10
2018-04-17T22:24:54.674Z,79.50
2018-04-17T22:27:22.206Z,79.30
2018-04-17T22:29:49.920Z,79.40
2018-04-17T22:32:17.442Z,79.40
2018-04-17T22:34:45.864Z,79.40
2018-04-17T22:37:13.382Z,79.20
2018-04-17T22:39:40.934Z,79.20
2018-04-17T22:42:08.471Z,79.40
2018-04-17T22:44:36.146Z,79.80
2018-04-17T22:47:03.671Z,80.20
2018-04-17T22:49:31.235Z,80.70
2018-04-17T22:51:58.776Z,80.60
2018-04-17T22:54:26.396Z,80.70
2018-04-17T22:56:53.926Z,80.60
2018-04-17T22:59:21.534Z,80.30
2018-04-17T23:01:49.873Z,79.90
2018-04-17T23:04:17.423Z,80.00
2018-04-17T23:06:44.956Z,79.80
2018-04-17T23:09:12.639Z,79.90
2018-04-17T23:11:40.171Z,80.30
2018-04-17T23:14:07.748Z,80.40
2018-04-17T23:16:36.040Z,80.40
2018-04-17T23:19:03.609Z,80.40
2018-04-17T23:21:31.135Z,80.20
2018-04-17T23:23:58.695Z,80.60
2018-04-17T23:26:26.222Z,80.40
2018-04-17T23:28:53.767Z,80.70
2018-04-17T23:31:21.283Z,80.40
2018-04-17T23:33:49.599Z,80.70
2018-04-17T23:36:17.124Z,80.60
2018-04-17T23:38:44.718Z,81.00
2018-04-17T23:41:13.003Z,81.00
2018-04-17T23:43:41.361Z,81.20
2018-04-17T23:46:09.659Z,81.40
2018-04-17T23:48:37.218Z,81.30
2018-04-17T23:51:04.761Z,81.40
2018-04-17T23:53:32.316Z,81.40
2018-04-17T23:55:59.848Z,81.60
2018-04-17T23:58:27.393Z,81.60
